Connecticut River @ Wells River, Vt

Connecticut River at Wells River
 Total Drainage Area: 2,644 sq. miles 
 Drainage Area Controlled by Corps Dams: 0 sq. miles (0%) 
 Warning Flow/Stage: 19,535 cfs / 7.5 feet 
 Flood Flow/Stage: 44,500 cfs / 13.0 feet 
Date Time
(Eastern)
Stage
(ft)
Flow
(cfs)
CSM
(cfs / sq. mi.)
Jan-31 02:30 pm 3.82 4,220 1.6
Jan-31 01:30 pm 4.06 4,859 1.8
Jan-31 12:30 pm 4.25 5,397 2.0
Jan-31 11:30 am 4.22 5,310 2.0
Jan-31 10:30 am 4.12 5,026 1.9
Jan-31 09:30 am 3.93 4,507 1.7
Jan-31 08:30 am 3.51 3,463 1.3
Jan-31 07:30 am 3.26 2,908 1.1
Jan-31 06:30 am 3.26 2,908 1.1
Jan-31 05:30 am 3.26 2,908 1.1
Jan-31 04:30 am 3.26 2,908 1.1
Jan-31 03:30 am 3.27 2,929 1.1
Jan-31 02:30 am 3.28 2,950 1.1
Jan-31 01:30 am 3.30 2,993 1.1
Jan-31 12:30 am 3.34 3,080 1.2
Jan-30 11:30 pm 3.38 3,168 1.2
Jan-30 10:30 pm 3.50 3,439 1.3
Jan-30 09:30 pm 3.80 4,168 1.6
Jan-30 08:30 pm 3.95 4,560 1.7
Jan-30 07:30 pm 3.98 4,641 1.8
Jan-30 06:30 pm 4.06 4,859 1.8
Jan-30 05:30 pm 4.22 5,310 2.0
Jan-30 04:30 pm 4.37 5,753 2.2
Jan-30 03:30 pm 4.39 5,813 2.2
Jan-30 02:30 pm 4.39 5,813 2.2
Report Generated January 31, 2023 02:43 pm